Hoxie, Kansas
Current Conditions -  °F | °C
As of 4:53 PM on Saturday 20 Dec 2014 (Local Time) from KHLC Reporting Station
Clear Clear  
Wind Chill: 50°   Ceiling: Unl
Heat Index: 50°   Visibility: 10mi
Dew Point: 33°   Wind: 7mph
Humidity: 52%   Direction: 190°S
Pressure: 29.98"   Gusts: NA
Location:  39.36°N, 100.44°W
Report Text: KHLC 202253Z AUTO 19006KT 10SM CLR 10/01 A2998 RMK AO2 SLP163 T01000006
Loading
Personal Weather Stations






























Interactive Weather Map New forecast layout! Learn more

10-Day Weather Forecast

Advertisements
Track Severe Weather on mobile